Aspen, Colorado
Current Conditions -  °F | °C
As of 12:53 PM on Sunday 23 Nov 2014 (Local Time) from KASE Reporting Station
Light Snow Light Snow  
Wind Chill: 14°   Ceiling: 3100
Heat Index: 26°   Visibility: 3mi
Dew Point: 17°   Wind: 14mph
Humidity: 69%   Direction: 340°NNW
Pressure: 29.87"   Gusts: 23mph
Location:  39.19°N, 106.81°W
Report Text: KASE 231953Z 34012G20KT 300V010 3SM -SN FEW024 BKN031 OVC035 M03/M08 A2987 RMK AO2 UPB23E32SNE18B47 SLP096 P0000 T10331083
Loading
Personal Weather Stations






























Interactive Weather Map New forecast layout! Learn more

10-Day Weather Forecast

Advertisements
Track Severe Weather on mobile